ETH19 LSZH-LIMC
Flight info
| Callsign | ETH19 |
|---|---|
| Flight time | N/A |
| Altitude | 22000 |
| Route | VEBIT4N/32 VEBIT T53 OMIDO/N0472F240 T53 GERSA/N0464F230 DCT SOSON DCT DEGAD DCT BASGO Z424 AKASU/N0439F190 Z424 RIXUV |
| Aircraft | A35K/H-SDE2E3GHIJ3J4J5LM1ORWXY/LB1D1 |
Departure
| Time | N/A |
|---|---|
| Airport | Zürich Airport (LSZH) |
Arrival
| Time | 2026-05-05 20:51 |
|---|---|
| Airport | Milan Malpensa International Airport (LIMC) |
| Time | Latitude | Longitude | Altitude | Speed | Heading |
|---|---|---|---|---|---|
| 2026-05-05 20:51 | 45.63889 | 8.72765 | 754 ft | 8 kts | 298° |
| 2026-05-05 20:51 | 45.63912 | 8.72708 | 753 ft | 6 kts | 301° |
| 2026-05-05 20:51 | 45.63931 | 8.72664 | 755 ft | 4 kts | 299° |
| 2026-05-05 20:51 | 45.63945 | 8.72612 | 754 ft | 6 kts | 287° |
| 2026-05-05 20:52 | 45.63950 | 8.72562 | 753 ft | 4 kts | 272° |
| 2026-05-05 20:52 | 45.63949 | 8.72528 | 753 ft | 0 kts | 265° |
| 2026-05-05 20:52 | 45.63949 | 8.72526 | 753 ft | 1 kts | 265° |
| 2026-05-05 20:52 | 45.63948 | 8.72508 | 754 ft | 2 kts | 264° |
| 2026-05-05 20:53 | 45.63940 | 8.72438 | 755 ft | 13 kts | 261° |
| 2026-05-05 20:53 | 45.63925 | 8.72310 | 756 ft | 12 kts | 261° |
| 2026-05-05 20:53 | 45.63916 | 8.72190 | 753 ft | 12 kts | 265° |
| 2026-05-05 20:53 | 45.63912 | 8.72058 | 750 ft | 13 kts | 268° |
| 2026-05-05 20:54 | 45.63904 | 8.71946 | 751 ft | 9 kts | 261° |
| 2026-05-05 20:54 | 45.63889 | 8.71890 | 752 ft | 7 kts | 239° |
| 2026-05-05 20:54 | 45.63836 | 8.71834 | 752 ft | 9 kts | 195° |
| 2026-05-05 20:54 | 45.63782 | 8.71835 | 755 ft | 7 kts | 171° |
| 2026-05-05 20:55 | 45.63738 | 8.71844 | 755 ft | 6 kts | 171° |
| 2026-05-05 20:55 | 45.63673 | 8.71860 | 754 ft | 15 kts | 170° |
| 2026-05-05 20:55 | 45.63546 | 8.71894 | 755 ft | 21 kts | 168° |
| 2026-05-05 20:55 | 45.63424 | 8.71927 | 753 ft | 8 kts | 169° |
| 2026-05-05 20:56 | 45.63415 | 8.71930 | 753 ft | 0 kts | 169° |
| 2026-05-05 20:56 | 45.63403 | 8.71933 | 753 ft | 5 kts | 169° |
| 2026-05-05 20:57 | 45.63347 | 8.71948 | 756 ft | 10 kts | 169° |
| 2026-05-05 20:57 | 45.63284 | 8.71964 | 754 ft | 9 kts | 169° |
| 2026-05-05 20:57 | 45.63228 | 8.71979 | 755 ft | 8 kts | 169° |
| 2026-05-05 20:57 | 45.63176 | 8.71993 | 753 ft | 9 kts | 169° |
| 2026-05-05 20:58 | 45.63099 | 8.72015 | 756 ft | 12 kts | 168° |
| 2026-05-05 20:58 | 45.63015 | 8.72039 | 755 ft | 12 kts | 168° |
| 2026-05-05 20:58 | 45.62939 | 8.72062 | 754 ft | 11 kts | 168° |
| 2026-05-05 20:58 | 45.62871 | 8.72082 | 757 ft | 10 kts | 168° |
| 2026-05-05 20:59 | 45.62845 | 8.72090 | 754 ft | 0 kts | 168° |
| 2026-05-05 20:59 | 45.62839 | 8.72091 | 753 ft | 4 kts | 168° |
| 2026-05-05 21:00 | 45.62817 | 8.72097 | 758 ft | 0 kts | 168° |
| 2026-05-05 21:01 | 45.62798 | 8.72103 | 753 ft | 6 kts | 168° |
| 2026-05-05 21:01 | 45.62762 | 8.72112 | 753 ft | 5 kts | 175° |
| 2026-05-05 21:01 | 45.62703 | 8.72085 | 754 ft | 12 kts | 220° |
| 2026-05-05 21:02 | 45.62669 | 8.71978 | 753 ft | 9 kts | 258° |
| 2026-05-05 21:02 | 45.62662 | 8.71928 | 756 ft | 0 kts | 260° |
| 2026-05-05 21:02 | 45.62661 | 8.71918 | 756 ft | 6 kts | 260° |
| 2026-05-05 21:02 | 45.62651 | 8.71830 | 757 ft | 7 kts | 259° |
| 2026-05-05 21:03 | 45.62652 | 8.71767 | 755 ft | 6 kts | 290° |
| 2026-05-05 21:03 | 45.62675 | 8.71732 | 753 ft | 4 kts | 318° |
| 2026-05-05 21:03 | 45.62697 | 8.71712 | 753 ft | 3 kts | 331° |
| 2026-05-05 21:03 | 45.62715 | 8.71698 | 753 ft | 2 kts | 330° |
| 2026-05-05 21:04 | 45.62719 | 8.71694 | 753 ft | 0 kts | 330° |
| 2026-05-05 21:04 | 45.62720 | 8.71693 | 753 ft | 0 kts | 330° |